createdAt,value
2023-04-11T00:00:51.818Z,45.00
2023-04-11T00:03:19.033Z,44.90
2023-04-11T00:05:46.542Z,44.90
2023-04-11T00:08:13.337Z,44.70
2023-04-11T00:10:40.038Z,44.80
2023-04-11T00:13:06.728Z,44.50
2023-04-11T00:15:33.478Z,44.30
2023-04-11T00:18:01.560Z,44.50
2023-04-11T00:20:28.368Z,44.40
2023-04-11T00:22:55.022Z,44.80
2023-04-11T00:25:21.739Z,44.70
2023-04-11T00:27:48.482Z,44.80
2023-04-11T00:30:15.213Z,45.00
2023-04-11T00:32:41.978Z,45.10
2023-04-11T00:35:10.263Z,45.30
2023-04-11T00:37:36.927Z,45.50
2023-04-11T00:40:03.952Z,45.70
2023-04-11T00:42:30.665Z,45.60
2023-04-11T00:44:57.339Z,45.70
2023-04-11T00:47:24.207Z,45.80
2023-04-11T00:49:51.007Z,45.90
2023-04-11T00:52:19.493Z,45.80
2023-04-11T00:54:46.771Z,45.70
2023-04-11T00:57:14.240Z,45.90
2023-04-11T00:59:41.617Z,45.90
2023-04-11T01:02:08.421Z,46.10
2023-04-11T01:04:35.176Z,46.30
2023-04-11T01:07:05.009Z,47.00
2023-04-11T01:09:35.282Z,46.40
2023-04-11T01:12:03.850Z,46.50
2023-04-11T01:14:30.742Z,46.50
2023-04-11T01:16:58.083Z,46.40
2023-04-11T01:19:26.199Z,46.50
2023-04-11T01:21:54.354Z,46.60
2023-04-11T01:24:22.624Z,46.70
2023-04-11T01:26:49.568Z,46.70
2023-04-11T01:29:16.248Z,46.70
2023-04-11T01:31:43.945Z,46.80
2023-04-11T01:34:11.378Z,46.90
2023-04-11T01:36:38.250Z,46.90
2023-04-11T01:39:06.041Z,47.00
2023-04-11T01:41:34.588Z,47.20
2023-04-11T01:44:01.772Z,47.30
2023-04-11T01:46:28.478Z,47.20
2023-04-11T01:48:56.306Z,47.40
2023-04-11T01:51:23.232Z,47.50
2023-04-11T01:53:49.921Z,47.30
2023-04-11T01:56:16.715Z,47.50
2023-04-11T01:58:44.756Z,47.40
2023-04-11T02:01:11.512Z,47.60
2023-04-11T02:03:38.321Z,47.70
2023-04-11T02:06:05.964Z,47.70
2023-04-11T02:08:32.726Z,47.80
2023-04-11T02:10:59.560Z,47.90
2023-04-11T02:13:26.297Z,48.30
2023-04-11T02:15:54.373Z,48.00
2023-04-11T02:18:21.375Z,48.10
2023-04-11T02:20:48.100Z,48.20
2023-04-11T02:23:14.761Z,48.30
2023-04-11T02:25:41.471Z,48.40
2023-04-11T02:28:08.491Z,48.60
2023-04-11T02:30:35.266Z,48.40
2023-04-11T02:33:03.752Z,48.50
2023-04-11T02:35:30.486Z,48.50
2023-04-11T02:37:57.174Z,48.30
2023-04-11T02:40:24.157Z,48.90
2023-04-11T02:42:50.851Z,48.80
2023-04-11T02:45:17.578Z,49.00
2023-04-11T02:47:44.247Z,48.90
2023-04-11T02:50:12.568Z,48.70
2023-04-11T02:52:39.316Z,49.10
2023-04-11T02:55:06.448Z,48.80
2023-04-11T02:57:33.113Z,49.00
2023-04-11T02:59:59.772Z,49.30
2023-04-11T03:02:26.644Z,49.40
2023-04-11T03:04:53.444Z,49.30
2023-04-11T03:07:21.501Z,49.60
2023-04-11T03:09:48.243Z,49.70
2023-04-11T03:12:14.960Z,49.90
2023-04-11T03:14:41.719Z,49.90
2023-04-11T03:17:08.412Z,50.00
2023-04-11T03:19:35.097Z,49.90
2023-04-11T03:22:01.836Z,50.00
2023-04-11T03:24:29.919Z,50.00
2023-04-11T03:26:56.574Z,50.20
2023-04-11T03:29:23.265Z,50.00
2023-04-11T03:31:50.109Z,50.10
2023-04-11T03:34:16.823Z,50.00
2023-04-11T03:36:43.604Z,50.20
2023-04-11T03:39:10.293Z,50.10
2023-04-11T03:41:38.480Z,50.00
2023-04-11T03:44:05.222Z,49.60
2023-04-11T03:46:31.960Z,49.40
2023-04-11T03:48:58.768Z,49.10
2023-04-11T03:51:25.911Z,49.20
2023-04-11T03:53:52.704Z,49.10
2023-04-11T03:56:19.519Z,49.80
2023-04-11T03:58:47.509Z,49.80
2023-04-11T04:01:14.163Z,50.00
2023-04-11T04:03:41.335Z,49.90
2023-04-11T04:06:08.849Z,50.70
2023-04-11T04:08:35.580Z,50.30
2023-04-11T04:11:02.235Z,50.30
2023-04-11T04:13:28.987Z,50.30
2023-04-11T04:15:57.050Z,50.40
2023-04-11T04:18:23.801Z,50.60
2023-04-11T04:20:50.519Z,50.60
2023-04-11T04:23:17.200Z,50.40
2023-04-11T04:25:44.337Z,50.30
2023-04-11T04:28:11.014Z,50.30
2023-04-11T04:30:37.724Z,50.60
2023-04-11T04:33:05.842Z,50.90
2023-04-11T04:35:32.599Z,50.60
2023-04-11T04:37:59.289Z,50.50
2023-04-11T04:40:25.964Z,50.60
2023-04-11T04:42:52.972Z,50.80
2023-04-11T04:45:19.792Z,50.90
2023-04-11T04:47:46.483Z,50.70
2023-04-11T04:50:14.541Z,51.00
2023-04-11T04:52:41.517Z,50.90
2023-04-11T04:55:08.997Z,50.80
2023-04-11T04:57:35.647Z,51.00
2023-04-11T05:00:02.346Z,51.00
2023-04-11T05:02:29.171Z,50.80
2023-04-11T05:04:55.956Z,50.80
2023-04-11T05:07:24.083Z,50.80
2023-04-11T05:09:50.736Z,50.40
2023-04-11T05:12:17.660Z,50.30
2023-04-11T05:14:44.381Z,50.40
2023-04-11T05:17:11.037Z,50.30
2023-04-11T05:19:37.751Z,50.30
2023-04-11T05:22:04.435Z,50.50
2023-04-11T05:24:32.513Z,50.30
2023-04-11T05:26:59.301Z,50.30
2023-04-11T05:29:25.999Z,50.10
2023-04-11T05:31:52.709Z,50.30
2023-04-11T05:34:19.389Z,50.30
2023-04-11T05:36:46.098Z,50.20
2023-04-11T05:39:13.024Z,50.10
2023-04-11T05:41:41.087Z,50.40
2023-04-11T05:44:07.758Z,50.50
2023-04-11T05:46:34.702Z,50.50
2023-04-11T05:49:01.402Z,50.30
2023-04-11T05:51:28.181Z,50.30
2023-04-11T05:53:55.050Z,50.50
2023-04-11T05:56:21.836Z,50.40
2023-04-11T05:58:49.896Z,50.50
2023-04-11T06:01:16.631Z,50.10
2023-04-11T06:03:43.429Z,50.10
2023-04-11T06:06:10.336Z,50.30
2023-04-11T06:08:37.095Z,50.30
2023-04-11T06:11:04.025Z,50.00
2023-04-11T06:13:30.768Z,50.20
2023-04-11T06:15:59.237Z,50.20
2023-04-11T06:18:26.025Z,50.30
2023-04-11T06:20:52.683Z,50.30
2023-04-11T06:23:19.338Z,50.20
2023-04-11T06:25:45.994Z,50.30
2023-04-11T06:28:12.735Z,50.30
2023-04-11T06:30:39.418Z,50.30
2023-04-11T06:33:07.696Z,50.40
2023-04-11T06:35:34.501Z,50.40
2023-04-11T06:38:01.218Z,50.60
2023-04-11T06:40:27.952Z,51.00
2023-04-11T06:42:54.578Z,50.90
2023-04-11T06:45:21.239Z,50.90
2023-04-11T06:47:48.105Z,51.10
2023-04-11T06:50:16.270Z,51.10
2023-04-11T06:52:42.949Z,51.30
2023-04-11T06:55:09.878Z,51.20
2023-04-11T06:57:36.557Z,49.60
2023-04-11T07:00:03.565Z,49.00
2023-04-11T07:02:31.663Z,48.80
2023-04-11T07:04:58.432Z,48.60
2023-04-11T07:07:30.038Z,48.60
2023-04-11T07:09:57.028Z,48.80
2023-04-11T07:12:23.865Z,48.60
2023-04-11T07:14:50.548Z,48.50
2023-04-11T07:17:17.227Z,49.40
2023-04-11T07:19:43.912Z,48.30
2023-04-11T07:22:10.582Z,48.60
2023-04-11T07:24:38.591Z,48.80
2023-04-11T07:27:05.255Z,48.80
2023-04-11T07:29:31.937Z,48.70
2023-04-11T07:31:58.708Z,48.80
2023-04-11T07:34:25.486Z,48.60
2023-04-11T07:36:52.149Z,48.90
2023-04-11T07:39:18.765Z,49.00
2023-04-11T07:41:46.796Z,49.20
2023-04-11T07:44:13.430Z,49.00
2023-04-11T07:46:40.140Z,49.50
2023-04-11T07:49:06.793Z,49.80
2023-04-11T07:51:33.471Z,49.20
2023-04-11T07:54:00.144Z,48.80
2023-04-11T07:56:26.868Z,49.20
2023-04-11T07:58:54.959Z,49.50
2023-04-11T08:01:22.878Z,49.60
2023-04-11T08:03:49.886Z,49.20
2023-04-11T08:06:16.685Z,49.40
2023-04-11T08:08:44.374Z,49.00
2023-04-11T08:11:11.123Z,49.30
2023-04-11T08:13:37.778Z,49.90
2023-04-11T08:16:08.437Z,49.40
2023-04-11T08:18:35.428Z,48.70
2023-04-11T08:21:02.459Z,49.10
2023-04-11T08:23:29.646Z,48.50
2023-04-11T08:25:56.385Z,49.10
2023-04-11T08:28:23.102Z,49.10
2023-04-11T08:30:50.060Z,48.20
2023-04-11T08:33:18.390Z,48.80
2023-04-11T08:35:45.039Z,48.00
2023-04-11T08:38:11.716Z,48.30
2023-04-11T08:40:38.393Z,47.90
2023-04-11T08:43:05.763Z,46.00
2023-04-11T08:45:32.443Z,46.20
2023-04-11T08:47:59.166Z,46.60
2023-04-11T08:50:27.204Z,48.10
2023-04-11T08:52:54.221Z,49.30
2023-04-11T08:55:20.944Z,49.30
2023-04-11T08:57:47.600Z,50.50
2023-04-11T09:00:15.411Z,50.30
2023-04-11T09:02:57.883Z,51.10
2023-04-11T09:05:27.454Z,51.30
2023-04-11T09:07:54.118Z,51.30
2023-04-11T09:10:22.129Z,51.20
2023-04-11T09:12:49.064Z,51.20
2023-04-11T09:15:19.940Z,51.40
2023-04-11T09:17:46.768Z,51.10
2023-04-11T09:20:18.141Z,51.80
2023-04-11T09:22:49.538Z,51.70
2023-04-11T09:25:16.682Z,51.80
2023-04-11T09:27:43.380Z,50.80
2023-04-11T09:30:23.710Z,51.20
2023-04-11T09:32:51.489Z,51.10
2023-04-11T09:35:19.612Z,51.20
2023-04-11T09:37:49.338Z,51.40
2023-04-11T09:40:17.720Z,50.40
2023-04-11T09:42:45.335Z,49.80
2023-04-11T09:45:19.667Z,50.40
2023-04-11T09:47:47.316Z,50.00
2023-04-11T09:50:14.249Z,50.60
2023-04-11T09:52:42.661Z,50.40
2023-04-11T09:55:11.981Z,50.90
2023-04-11T09:57:41.042Z,50.10
2023-04-11T10:00:09.436Z,50.30
2023-04-11T10:02:36.263Z,49.40
2023-04-11T10:05:04.343Z,48.80
2023-04-11T10:07:32.265Z,47.90
2023-04-11T10:09:59.036Z,48.30
2023-04-11T10:12:31.869Z,48.80
2023-04-11T10:15:05.422Z,48.30
2023-04-11T10:17:32.133Z,48.70
2023-04-11T10:19:58.915Z,48.20
2023-04-11T10:22:58.947Z,48.20
2023-04-11T10:25:25.633Z,48.50
2023-04-11T10:27:55.238Z,47.40
2023-04-11T10:30:51.751Z,46.60
2023-04-11T10:33:20.752Z,46.10
2023-04-11T10:36:06.177Z,46.20
2023-04-11T10:38:45.873Z,46.20
2023-04-11T10:41:24.412Z,46.50
2023-04-11T10:44:11.883Z,48.00
2023-04-11T10:46:44.790Z,47.90
2023-04-11T10:49:11.544Z,47.10
2023-04-11T10:51:38.210Z,46.70
2023-04-11T10:54:05.298Z,47.00
2023-04-11T10:56:54.366Z,47.40
2023-04-11T10:59:59.042Z,46.20
2023-04-11T11:02:43.502Z,46.60
2023-04-11T11:05:21.281Z,47.20
2023-04-11T11:07:49.465Z,46.30
2023-04-11T11:10:16.399Z,44.80
2023-04-11T11:12:53.378Z,46.20
2023-04-11T11:15:21.638Z,44.80
2023-04-11T11:17:48.669Z,45.00
2023-04-11T11:20:16.688Z,43.90
2023-04-11T11:22:57.135Z,43.50
2023-04-11T11:25:23.943Z,44.80
2023-04-11T11:27:58.625Z,44.00
2023-04-11T11:30:26.803Z,42.90
2023-04-11T11:32:53.557Z,44.20
2023-04-11T11:35:20.664Z,44.60
2023-04-11T11:37:47.360Z,42.20
2023-04-11T11:40:14.111Z,42.20
2023-04-11T11:42:41.191Z,43.10
2023-04-11T11:45:14.830Z,43.00
2023-04-11T11:47:43.896Z,43.80
2023-04-11T11:50:10.750Z,44.10
2023-04-11T11:52:38.800Z,44.80
2023-04-11T11:55:10.453Z,45.50
2023-04-11T11:57:37.989Z,45.90
2023-04-11T12:00:05.917Z,45.30
2023-04-11T12:02:34.773Z,46.00
2023-04-11T12:05:04.964Z,47.40
2023-04-11T12:07:32.192Z,48.60
2023-04-11T12:09:59.992Z,48.30
2023-04-11T12:12:33.905Z,48.70
2023-04-11T12:15:01.753Z,48.60
2023-04-11T12:17:32.242Z,49.30
2023-04-11T12:19:58.983Z,48.80
2023-04-11T12:22:27.078Z,48.40
2023-04-11T12:25:04.479Z,48.20
2023-04-11T12:27:31.206Z,48.60
2023-04-11T12:29:57.903Z,46.30
2023-04-11T12:32:25.104Z,45.20
2023-04-11T12:34:51.803Z,45.30
2023-04-11T12:37:18.479Z,44.70
2023-04-11T12:39:46.542Z,43.50
2023-04-11T12:42:15.086Z,43.70
2023-04-11T12:44:44.202Z,44.80
2023-04-11T12:47:10.969Z,42.80
2023-04-11T12:49:37.647Z,42.00
2023-04-11T12:52:04.699Z,42.00
2023-04-11T12:54:31.442Z,42.70
2023-04-11T12:56:59.419Z,43.60
2023-04-11T12:59:26.125Z,43.10
2023-04-11T13:01:52.919Z,42.10
2023-04-11T13:04:19.747Z,39.20
2023-04-11T13:06:46.490Z,40.10
2023-04-11T13:09:14.032Z,40.40
2023-04-11T13:11:40.836Z,40.70
2023-04-11T13:14:08.913Z,40.00
2023-04-11T13:16:35.623Z,40.10
2023-04-11T13:19:02.305Z,39.10
2023-04-11T13:21:29.014Z,38.60
2023-04-11T13:23:55.691Z,37.80
2023-04-11T13:26:22.378Z,37.60
2023-04-11T13:28:49.070Z,36.70
2023-04-11T13:31:17.104Z,37.90
2023-04-11T13:33:43.868Z,38.90
2023-04-11T13:36:11.259Z,38.90
2023-04-11T13:38:37.956Z,37.80
2023-04-11T13:41:04.882Z,35.70
2023-04-11T13:43:32.128Z,37.00
2023-04-11T13:45:58.893Z,36.80
2023-04-11T13:48:27.042Z,37.60
2023-04-11T13:50:53.820Z,37.40
2023-04-11T13:53:20.496Z,36.90
2023-04-11T13:55:47.206Z,36.60
2023-04-11T13:58:14.377Z,36.20
2023-04-11T14:00:41.318Z,36.10
2023-04-11T14:03:08.212Z,36.60
2023-04-11T14:05:36.585Z,34.70
2023-04-11T14:08:04.160Z,34.50
2023-04-11T14:10:31.034Z,36.40
2023-04-11T14:12:57.755Z,34.80
2023-04-11T14:15:24.693Z,35.80
2023-04-11T14:17:51.467Z,35.50
2023-04-11T14:20:18.420Z,35.20
2023-04-11T14:22:46.623Z,35.00
2023-04-11T14:25:13.970Z,36.20
2023-04-11T14:27:41.211Z,38.50
2023-04-11T14:30:09.427Z,37.20
2023-04-11T14:32:36.221Z,36.30
2023-04-11T14:35:03.033Z,35.70
2023-04-11T14:37:29.946Z,36.10
2023-04-11T14:39:57.965Z,35.10
2023-04-11T14:42:24.939Z,35.90
2023-04-11T14:44:51.714Z,35.80
2023-04-11T14:47:18.606Z,36.80
2023-04-11T14:49:45.374Z,37.50
2023-04-11T14:52:12.157Z,37.70
2023-04-11T14:54:38.906Z,36.20
2023-04-11T14:57:06.984Z,37.10
2023-04-11T14:59:33.681Z,38.10
2023-04-11T15:02:00.524Z,38.20
2023-04-11T15:04:27.448Z,38.70
2023-04-11T15:06:54.277Z,39.00
2023-04-11T15:09:21.045Z,39.50
2023-04-11T15:11:48.277Z,41.60
2023-04-11T15:14:16.277Z,41.10
2023-04-11T15:16:43.068Z,41.40
2023-04-11T15:19:09.776Z,41.40
2023-04-11T15:21:36.469Z,41.30
2023-04-11T15:24:03.369Z,41.80
2023-04-11T15:26:30.063Z,41.80
2023-04-11T15:28:56.779Z,42.40
2023-04-11T15:31:25.921Z,42.30
2023-04-11T15:33:53.114Z,42.50
2023-04-11T15:36:19.955Z,42.80
2023-04-11T15:38:46.638Z,42.60
2023-04-11T15:41:13.463Z,43.10
2023-04-11T15:43:40.228Z,42.90
2023-04-11T15:46:07.144Z,43.00
2023-04-11T15:48:35.192Z,42.70
2023-04-11T15:51:08.533Z,42.80
2023-04-11T15:53:35.265Z,42.00
2023-04-11T15:56:04.149Z,42.00
2023-04-11T15:58:31.953Z,42.10
2023-04-11T16:00:58.898Z,41.90
2023-04-11T16:03:25.775Z,42.00
2023-04-11T16:09:18.534Z,40.50
2023-04-11T16:11:45.425Z,40.40
2023-04-11T16:14:12.174Z,40.50
2023-04-11T16:19:37.476Z,40.00
2023-04-11T16:22:32.275Z,40.30
2023-04-11T16:28:27.181Z,40.70
2023-04-11T16:30:54.429Z,40.70
2023-04-11T16:33:22.169Z,41.00
2023-04-11T16:35:50.917Z,40.60
2023-04-11T16:38:19.182Z,41.50
2023-04-11T16:40:45.833Z,41.90
2023-04-11T16:43:12.731Z,42.80
2023-04-11T16:45:39.424Z,43.80
2023-04-11T16:48:06.116Z,44.10
2023-04-11T16:50:32.813Z,43.80
2023-04-11T16:52:59.497Z,44.00
2023-04-11T16:55:27.549Z,42.80
2023-04-11T16:57:54.234Z,42.00
2023-04-11T17:00:21.190Z,43.40
2023-04-11T17:02:48.031Z,44.10
2023-04-11T17:05:15.129Z,43.50
2023-04-11T17:07:41.838Z,44.10
2023-04-11T17:10:09.404Z,44.30
2023-04-11T17:12:37.422Z,44.10
2023-04-11T17:15:04.795Z,44.50
2023-04-11T17:17:31.464Z,44.30
2023-04-11T17:19:58.159Z,44.40
2023-04-11T17:22:24.944Z,44.40
2023-04-11T17:24:51.656Z,44.80
2023-04-11T17:27:18.300Z,44.60
2023-04-11T17:29:46.383Z,44.60
2023-04-11T17:32:13.163Z,44.50
2023-04-11T17:34:39.924Z,44.70
2023-04-11T17:37:06.621Z,44.60
2023-04-11T17:39:33.770Z,44.80
2023-04-11T17:42:00.571Z,44.70
2023-04-11T17:44:27.228Z,44.70
2023-04-11T17:46:55.566Z,44.80
2023-04-11T17:49:22.464Z,44.80
2023-04-11T17:51:58.099Z,44.80
2023-04-11T17:54:25.511Z,44.80
2023-04-11T17:56:52.184Z,45.00
2023-04-11T17:59:18.890Z,44.90
2023-04-11T18:01:45.856Z,44.80
2023-04-11T18:04:14.391Z,44.80
2023-04-11T18:06:42.550Z,44.70
2023-04-11T18:09:09.246Z,44.50
2023-04-11T18:11:36.176Z,44.50
2023-04-11T18:14:03.356Z,44.50
2023-04-11T18:16:30.297Z,44.60
2023-04-11T18:18:57.055Z,44.70
2023-04-11T18:21:25.202Z,44.70
2023-04-11T18:23:51.886Z,44.60
2023-04-11T18:26:18.550Z,44.60
2023-04-11T18:28:45.321Z,44.50
2023-04-11T18:31:12.124Z,44.40
2023-04-11T18:33:42.445Z,44.60
2023-04-11T18:36:26.891Z,44.60
2023-04-11T18:38:55.029Z,44.60
2023-04-11T18:41:22.113Z,44.60
2023-04-11T18:43:48.798Z,44.70
2023-04-11T18:46:15.475Z,44.60
2023-04-11T18:48:42.262Z,44.70
2023-04-11T18:51:08.975Z,44.70
2023-04-11T18:53:37.039Z,44.70
2023-04-11T18:56:03.926Z,44.70
2023-04-11T18:58:33.940Z,44.80
2023-04-11T19:01:13.194Z,44.90
2023-04-11T19:03:42.255Z,44.90
2023-04-11T19:06:09.153Z,44.90
2023-04-11T19:08:37.283Z,44.90
2023-04-11T19:11:04.076Z,45.00
2023-04-11T19:13:30.730Z,45.10
2023-04-11T19:15:57.788Z,45.00
2023-04-11T19:18:24.523Z,45.10
2023-04-11T19:20:51.228Z,45.10
2023-04-11T19:23:17.943Z,45.40
2023-04-11T19:25:47.003Z,45.20
2023-04-11T19:28:13.736Z,45.20
2023-04-11T19:30:40.533Z,45.20
2023-04-11T19:33:07.292Z,45.30
2023-04-11T19:35:33.989Z,45.30
2023-04-11T19:38:02.193Z,45.30
2023-04-11T19:40:29.277Z,45.40
2023-04-11T19:42:57.294Z,45.30
2023-04-11T19:45:24.036Z,45.30
2023-04-11T19:47:50.817Z,45.40
2023-04-11T19:50:17.645Z,45.60
2023-04-11T19:52:44.329Z,45.40
2023-04-11T19:55:11.700Z,45.40
2023-04-11T19:57:38.570Z,45.50
2023-04-11T20:00:08.108Z,45.60
2023-04-11T20:02:35.000Z,45.50
2023-04-11T20:05:01.858Z,45.50
2023-04-11T20:07:28.573Z,45.60
2023-04-11T20:09:55.224Z,45.50
2023-04-11T20:12:21.902Z,45.60
2023-04-11T20:14:48.553Z,45.70
2023-04-11T20:17:16.660Z,45.70
2023-04-11T20:19:43.308Z,45.80
2023-04-11T20:22:10.006Z,45.90
2023-04-11T20:24:36.752Z,46.00
2023-04-11T20:27:03.462Z,46.10
2023-04-11T20:29:30.913Z,46.30
2023-04-11T20:31:57.819Z,46.20
2023-04-11T20:34:25.878Z,46.20
2023-04-11T20:36:52.535Z,46.30
2023-04-11T20:39:19.246Z,46.10
2023-04-11T20:41:45.937Z,46.10
2023-04-11T20:44:12.642Z,46.10
2023-04-11T20:46:39.449Z,46.10
2023-04-11T20:49:06.430Z,46.10
2023-04-11T20:51:34.582Z,46.10
2023-04-11T20:54:01.268Z,46.20
2023-04-11T20:56:28.025Z,46.20
2023-04-11T20:58:54.744Z,46.90
2023-04-11T21:01:21.416Z,46.20
2023-04-11T21:03:48.247Z,47.00
2023-04-11T21:06:15.063Z,46.40
2023-04-11T21:08:43.111Z,46.60
2023-04-11T21:11:09.805Z,46.40
2023-04-11T21:13:36.460Z,46.30
2023-04-11T21:16:03.134Z,46.90
2023-04-11T21:18:29.870Z,46.20
2023-04-11T21:20:56.535Z,46.20
2023-04-11T21:23:23.259Z,46.10
2023-04-11T21:25:51.300Z,46.20
2023-04-11T21:28:18.072Z,46.10
2023-04-11T21:30:44.739Z,46.10
2023-04-11T21:33:11.382Z,46.10
2023-04-11T21:35:38.211Z,46.10
2023-04-11T21:38:04.933Z,46.10
2023-04-11T21:40:31.593Z,45.90
2023-04-11T21:42:59.660Z,46.00
2023-04-11T21:45:26.339Z,46.00
2023-04-11T21:47:53.094Z,46.00
2023-04-11T21:50:19.844Z,45.90
2023-04-11T21:52:46.751Z,45.90
2023-04-11T21:55:14.713Z,45.90
2023-04-11T21:57:41.477Z,45.90
2023-04-11T22:00:10.422Z,45.90
2023-04-11T22:02:37.594Z,45.90
2023-04-11T22:05:07.073Z,45.80
2023-04-11T22:07:34.660Z,45.80
2023-04-11T22:10:01.348Z,45.70
2023-04-11T22:12:28.039Z,45.70
2023-04-11T22:14:55.715Z,45.60
2023-04-11T22:17:23.926Z,45.70
2023-04-11T22:19:50.668Z,45.60
2023-04-11T22:22:17.558Z,45.70
2023-04-11T22:24:44.483Z,45.70
2023-04-11T22:27:11.150Z,45.60
2023-04-11T22:29:37.793Z,45.70
2023-04-11T22:32:04.699Z,45.80
2023-04-11T22:34:32.903Z,45.80
2023-04-11T22:36:59.536Z,46.00
2023-04-11T22:39:26.252Z,45.90
2023-04-11T22:41:53.010Z,45.90
2023-04-11T22:44:20.058Z,46.10
2023-04-11T22:46:58.204Z,46.00
2023-04-11T22:49:24.914Z,46.10
2023-04-11T22:51:52.948Z,46.00
2023-04-11T22:54:19.642Z,46.00
2023-04-11T22:56:46.954Z,45.90
2023-04-11T22:59:13.665Z,45.90
2023-04-11T23:01:40.536Z,45.90
2023-04-11T23:04:07.374Z,45.90
2023-04-11T23:06:34.069Z,46.00
2023-04-11T23:09:02.041Z,45.90
2023-04-11T23:11:28.721Z,45.80
2023-04-11T23:13:55.847Z,45.70
2023-04-11T23:16:22.742Z,45.80
2023-04-11T23:18:49.489Z,45.70
2023-04-11T23:21:16.274Z,45.80
2023-04-11T23:23:42.973Z,45.80
2023-04-11T23:26:17.289Z,47.30
2023-04-11T23:28:44.131Z,46.60
2023-04-11T23:31:10.853Z,46.60
2023-04-11T23:33:38.302Z,46.60
2023-04-11T23:36:05.526Z,46.60
2023-04-11T23:38:32.213Z,46.60
2023-04-11T23:40:58.939Z,46.40
2023-04-11T23:43:26.967Z,46.40
2023-04-11T23:45:54.810Z,46.70
2023-04-11T23:48:21.619Z,46.70
2023-04-11T23:50:48.268Z,46.70
2023-04-11T23:53:14.990Z,46.70
2023-04-11T23:55:41.829Z,46.80
2023-04-11T23:58:09.116Z,46.80
